Time,TemperatureF,DewpointF,PressureIn,WindDirection,WindDirectionDegrees,WindSpeedMPH,WindSpeedGustMPH,Humidity,HourlyPrecipIn,Conditions,Clouds,dailyrainin,SoftwareType,DateUTC
2013-03-04 00:01:00,22.0,16.0,30.03,NNW,339,3.0,5.0,79,0.00,,,0.00,,2013-03-04 05:01:00,
2013-03-04 00:11:00,22.0,16.0,30.03,NNW,339,3.0,5.0,79,0.00,,,0.00,,2013-03-04 05:11:00,
2013-03-04 00:22:00,22.0,16.0,30.03,NW,309,3.0,5.0,79,0.00,,,0.00,,2013-03-04 05:22:00,
2013-03-04 00:32:00,22.0,16.0,30.03,NNE,20,1.0,5.0,79,0.00,,,0.00,,2013-03-04 05:32:00,
2013-03-04 00:42:00,22.0,16.0,30.03,NNE,20,1.0,5.0,79,0.00,,,0.00,,2013-03-04 05:42:00,
2013-03-04 00:52:00,22.0,16.0,30.03,NNW,340,1.0,5.0,79,0.00,,,0.00,,2013-03-04 05:52:00,
2013-03-04 01:02:00,21.0,16.0,30.03,NNW,340,0.0,0.0,81,0.00,,,0.00,,2013-03-04 06:02:00,
2013-03-04 01:11:00,21.0,16.0,30.03,NNW,340,0.0,0.0,81,0.00,,,0.00,,2013-03-04 06:11:00,
2013-03-04 01:22:00,21.0,16.0,30.03,NNW,341,0.0,0.0,82,0.00,,,0.00,,2013-03-04 06:22:00,
2013-03-04 01:32:00,20.0,16.0,30.04,WNW,294,0.0,1.0,83,0.00,,,0.00,,2013-03-04 06:32:00,
2013-03-04 01:42:00,20.0,16.0,30.04,WNW,294,0.0,1.0,83,0.00,,,0.00,,2013-03-04 06:42:00,
2013-03-04 01:51:00,20.0,16.0,30.04,WSW,249,0.0,1.0,84,0.00,,,0.00,,2013-03-04 06:51:00,
2013-03-04 02:02:00,19.0,15.0,30.04,SW,222,0.0,1.0,85,0.00,,,0.00,,2013-03-04 07:02:00,
2013-03-04 02:11:00,19.0,15.0,30.04,SW,222,0.0,1.0,85,0.00,,,0.00,,2013-03-04 07:11:00,
2013-03-04 02:22:00,19.0,15.0,30.04,SW,222,0.0,1.0,85,0.00,,,0.00,,2013-03-04 07:22:00,
2013-03-04 02:32:00,19.0,16.0,30.05,WSW,243,1.0,3.0,87,0.00,,,0.00,,2013-03-04 07:32:00,
2013-03-04 02:42:00,19.0,16.0,30.05,WSW,243,1.0,3.0,87,0.00,,,0.00,,2013-03-04 07:42:00,
2013-03-04 02:52:00,19.0,16.0,30.05,SW,219,2.0,3.0,87,0.00,,,0.00,,2013-03-04 07:52:00,
2013-03-04 03:02:00,20.0,16.0,30.05,SW,215,1.0,3.0,86,0.00,,,0.00,,2013-03-04 08:02:00,
2013-03-04 03:12:00,20.0,16.0,30.05,SW,226,1.0,3.0,86,0.00,,,0.00,,2013-03-04 08:12:00,
2013-03-04 03:22:00,20.0,16.0,30.05,SW,226,1.0,3.0,86,0.00,,,0.00,,2013-03-04 08:22:00,
2013-03-04 03:32:00,20.0,17.0,30.05,SSW,210,0.0,3.0,87,0.00,,,0.00,,2013-03-04 08:32:00,
2013-03-04 03:42:00,20.0,17.0,30.05,SSW,210,0.0,3.0,87,0.00,,,0.00,,2013-03-04 08:42:00,
2013-03-04 03:52:00,20.0,17.0,30.05,SSW,210,0.0,3.0,87,0.00,,,0.00,,2013-03-04 08:52:00,
2013-03-04 04:02:00,19.0,16.0,30.04,SW,219,1.0,3.0,88,0.00,,,0.00,,2013-03-04 09:02:00,
2013-03-04 04:11:00,19.0,16.0,30.04,SW,219,1.0,3.0,88,0.00,,,0.00,,2013-03-04 09:11:00,
2013-03-04 04:22:00,19.0,16.0,30.04,SW,222,1.0,3.0,89,0.00,,,0.00,,2013-03-04 09:22:00,
2013-03-04 04:32:00,18.0,16.0,30.04,SW,221,0.0,2.0,90,0.00,,,0.00,,2013-03-04 09:32:00,
2013-03-04 04:42:00,18.0,16.0,30.04,SW,221,0.0,2.0,90,0.00,,,0.00,,2013-03-04 09:42:00,
2013-03-04 04:52:00,18.0,16.0,30.04,SW,221,0.0,2.0,90,0.00,,,0.00,,2013-03-04 09:52:00,
2013-03-04 05:01:00,18.0,16.0,30.05,SW,218,3.0,3.0,91,0.00,,,0.00,,2013-03-04 10:01:00,
2013-03-04 05:12:00,18.0,16.0,30.05,SW,218,3.0,3.0,91,0.00,,,0.00,,2013-03-04 10:12:00,
2013-03-04 05:22:00,18.0,16.0,30.05,SW,218,3.0,3.0,91,0.00,,,0.00,,2013-03-04 10:22:00,
2013-03-04 05:32:00,19.0,17.0,30.06,WSW,238,5.0,6.0,90,0.00,,,0.00,,2013-03-04 10:32:00,
2013-03-04 05:42:00,19.0,17.0,30.06,WSW,238,5.0,6.0,90,0.00,,,0.00,,2013-03-04 10:42:00,
2013-03-04 05:52:00,19.0,17.0,30.06,WSW,238,5.0,6.0,90,0.00,,,0.00,,2013-03-04 10:52:00,
2013-03-04 06:02:00,19.0,17.0,30.07,SW,223,1.0,5.0,90,0.00,,,0.00,,2013-03-04 11:02:00,
2013-03-04 06:11:00,19.0,17.0,30.07,SW,223,1.0,5.0,90,0.00,,,0.00,,2013-03-04 11:11:00,
2013-03-04 06:22:00,19.0,17.0,30.07,SSW,206,2.0,5.0,90,0.00,,,0.00,,2013-03-04 11:22:00,
2013-03-04 06:32:00,20.0,18.0,30.09,WSW,251,3.0,6.0,90,0.00,,,0.00,,2013-03-04 11:32:00,
2013-03-04 06:42:00,20.0,18.0,30.09,WSW,251,3.0,6.0,90,0.00,,,0.00,,2013-03-04 11:42:00,
2013-03-04 06:52:00,20.0,18.0,30.09,SSW,206,3.0,6.0,90,0.00,,,0.00,,2013-03-04 11:52:00,
2013-03-04 07:02:00,20.0,18.0,30.09,SSW,206,3.0,6.0,90,0.00,,,0.00,,2013-03-04 12:02:00,
2013-03-04 07:11:00,20.0,18.0,30.09,SSW,206,3.0,6.0,90,0.00,,,0.00,,2013-03-04 12:11:00,
2013-03-04 07:22:00,19.0,16.0,30.10,WSW,257,3.0,4.0,88,0.00,,,0.00,,2013-03-04 12:22:00,
2013-03-04 07:32:00,18.0,15.0,30.11,WSW,249,1.0,3.0,88,0.00,,,0.00,,2013-03-04 12:32:00,
2013-03-04 07:42:00,18.0,15.0,30.11,WSW,249,1.0,3.0,88,0.00,,,0.00,,2013-03-04 12:42:00,
2013-03-04 07:52:00,18.0,15.0,30.11,SW,227,0.0,3.0,88,0.00,,,0.00,,2013-03-04 12:52:00,
2013-03-04 08:02:00,18.0,15.0,30.12,WSW,248,1.0,3.0,89,0.00,,,0.00,,2013-03-04 13:02:00,
2013-03-04 08:11:00,18.0,15.0,30.12,WSW,248,1.0,3.0,89,0.00,,,0.00,,2013-03-04 13:11:00,
2013-03-04 08:22:00,18.0,15.0,30.12,WSW,248,1.0,3.0,89,0.00,,,0.00,,2013-03-04 13:22:00,
2013-03-04 08:32:00,20.0,17.0,30.12,West,261,1.0,4.0,87,0.00,,,0.00,,2013-03-04 13:32:00,
2013-03-04 08:42:00,20.0,17.0,30.12,West,261,1.0,4.0,87,0.00,,,0.00,,2013-03-04 13:42:00,
2013-03-04 08:52:00,21.0,17.0,30.12,West,259,1.0,4.0,86,0.00,,,0.00,,2013-03-04 13:52:00,
2013-03-04 09:01:00,22.0,18.0,30.12,SW,229,1.0,4.0,85,0.00,,,0.00,,2013-03-04 14:01:00,
2013-03-04 09:12:00,22.0,18.0,30.12,SW,229,1.0,4.0,85,0.00,,,0.00,,2013-03-04 14:12:00,
2013-03-04 09:22:00,23.0,18.0,30.12,WSW,256,1.0,4.0,82,0.00,,,0.00,,2013-03-04 14:22:00,
2013-03-04 09:32:00,25.0,20.0,30.12,WSW,254,3.0,5.0,81,0.00,,,0.00,,2013-03-04 14:32:00,
2013-03-04 09:42:00,25.0,20.0,30.12,WSW,254,3.0,5.0,81,0.00,,,0.00,,2013-03-04 14:42:00,
2013-03-04 09:52:00,25.0,20.0,30.12,WSW,254,0.0,5.0,80,0.00,,,0.00,,2013-03-04 14:52:00,
2013-03-04 10:02:00,26.0,20.0,30.12,SSW,209,3.0,5.0,78,0.00,,,0.00,,2013-03-04 15:02:00,
2013-03-04 10:11:00,26.0,20.0,30.12,SSW,209,3.0,5.0,78,0.00,,,0.00,,2013-03-04 15:11:00,
2013-03-04 10:22:00,27.0,21.0,30.12,West,275,1.0,5.0,78,0.00,,,0.00,,2013-03-04 15:22:00,
2013-03-04 10:32:00,27.0,20.0,30.12,WSW,257,5.0,8.0,75,0.00,,,0.00,,2013-03-04 15:32:00,
2013-03-04 10:42:00,27.0,20.0,30.12,WSW,257,5.0,8.0,75,0.00,,,0.00,,2013-03-04 15:42:00,
2013-03-04 10:52:00,27.0,20.0,30.12,WSW,257,5.0,8.0,75,0.00,,,0.00,,2013-03-04 15:52:00,
2013-03-04 11:03:00,28.0,20.0,30.12,SSW,196,3.0,5.0,71,0.00,,,0.00,,2013-03-04 16:03:00,
2013-03-04 11:11:00,28.0,20.0,30.12,SSW,196,3.0,5.0,71,0.00,,,0.00,,2013-03-04 16:11:00,
2013-03-04 11:21:00,28.0,20.0,30.12,NNE,23,8.0,8.0,71,0.00,,,0.00,,2013-03-04 16:21:00,
2013-03-04 11:32:00,29.0,20.0,30.12,WNW,301,2.0,7.0,68,0.00,,,0.00,,2013-03-04 16:32:00,
2013-03-04 11:42:00,29.0,20.0,30.12,WNW,301,2.0,7.0,68,0.00,,,0.00,,2013-03-04 16:42:00,
2013-03-04 11:52:00,29.0,20.0,30.12,WNW,301,2.0,7.0,68,0.00,,,0.00,,2013-03-04 16:52:00,
2013-03-04 12:02:00,30.0,19.0,30.12,West,261,2.0,9.0,63,0.00,,,0.00,,2013-03-04 17:02:00,
2013-03-04 12:11:00,30.0,19.0,30.12,West,261,2.0,9.0,63,0.00,,,0.00,,2013-03-04 17:11:00,
2013-03-04 12:22:00,31.0,21.0,30.12,WSW,242,4.0,9.0,65,0.00,,,0.00,,2013-03-04 17:22:00,
2013-03-04 12:32:00,31.0,20.0,30.11,NW,311,2.0,5.0,64,0.00,,,0.00,,2013-03-04 17:32:00,
2013-03-04 12:42:00,31.0,20.0,30.11,NW,311,2.0,5.0,64,0.00,,,0.00,,2013-03-04 17:42:00,
2013-03-04 12:52:00,31.0,20.0,30.11,SW,232,3.0,7.0,63,0.00,,,0.00,,2013-03-04 17:52:00,
2013-03-04 13:02:00,32.0,20.0,30.11,WNW,287,1.0,8.0,62,0.00,,,0.00,,2013-03-04 18:02:00,
2013-03-04 13:11:00,32.0,20.0,30.11,WNW,287,1.0,8.0,62,0.00,,,0.00,,2013-03-04 18:11:00,
2013-03-04 13:22:00,32.0,20.0,30.11,SW,219,3.0,8.0,62,0.00,,,0.00,,2013-03-04 18:22:00,
2013-03-04 13:32:00,32.0,20.0,30.10,West,261,2.0,5.0,61,0.00,,,0.00,,2013-03-04 18:32:00,
2013-03-04 13:42:00,32.0,20.0,30.10,West,261,2.0,5.0,61,0.00,,,0.00,,2013-03-04 18:42:00,
2013-03-04 13:52:00,32.0,20.0,30.10,West,261,2.0,5.0,61,0.00,,,0.00,,2013-03-04 18:52:00,
2013-03-04 14:02:00,32.0,21.0,30.09,NW,310,1.0,8.0,63,0.01,,,0.01,,2013-03-04 19:02:00,
2013-03-04 14:12:00,32.0,21.0,30.09,NW,310,1.0,8.0,63,0.01,,,0.01,,2013-03-04 19:12:00,
2013-03-04 14:22:00,32.0,21.0,30.09,NW,310,1.0,8.0,63,0.01,,,0.01,,2013-03-04 19:22:00,
2013-03-04 14:32:00,32.0,22.0,30.09,NNW,331,6.0,6.0,65,0.01,,,0.01,,2013-03-04 19:32:00,
2013-03-04 14:42:00,32.0,22.0,30.09,NNW,331,6.0,6.0,65,0.01,,,0.01,,2013-03-04 19:42:00,
2013-03-04 14:52:00,32.0,22.0,30.09,NNW,344,3.0,9.0,66,0.01,,,0.01,,2013-03-04 19:52:00,
2013-03-04 15:02:00,32.0,22.0,30.09,East,86,3.0,7.0,65,0.01,,,0.01,,2013-03-04 20:02:00,
2013-03-04 15:11:00,32.0,22.0,30.09,NW,323,2.0,7.0,65,0.01,,,0.01,,2013-03-04 20:11:00,
2013-03-04 15:22:00,32.0,22.0,30.09,NW,323,2.0,7.0,65,0.01,,,0.01,,2013-03-04 20:22:00,
2013-03-04 15:32:00,32.0,22.0,30.09,NNW,335,2.0,7.0,65,0.00,,,0.01,,2013-03-04 20:32:00,
2013-03-04 15:42:00,32.0,22.0,30.09,NNW,335,2.0,7.0,65,0.00,,,0.01,,2013-03-04 20:42:00,
2013-03-04 15:52:00,32.0,22.0,30.09,NNW,328,2.0,7.0,65,0.00,,,0.01,,2013-03-04 20:52:00,
2013-03-04 16:02:00,32.0,22.0,30.09,NW,315,2.0,6.0,66,0.00,,,0.01,,2013-03-04 21:02:00,
2013-03-04 16:12:00,32.0,22.0,30.09,NW,315,2.0,6.0,66,0.00,,,0.01,,2013-03-04 21:12:00,
2013-03-04 16:22:00,31.0,21.0,30.09,ENE,63,3.0,9.0,67,0.00,,,0.01,,2013-03-04 21:22:00,
2013-03-04 16:32:00,31.0,21.0,30.09,WNW,299,2.0,5.0,67,0.00,,,0.01,,2013-03-04 21:32:00,
2013-03-04 16:42:00,31.0,21.0,30.09,WNW,299,2.0,5.0,67,0.00,,,0.01,,2013-03-04 21:42:00,
2013-03-04 16:52:00,32.0,22.0,30.09,NW,320,2.0,6.0,65,0.00,,,0.01,,2013-03-04 21:52:00,
2013-03-04 17:02:00,31.0,21.0,30.09,NNW,342,3.0,4.0,67,0.00,,,0.01,,2013-03-04 22:02:00,
2013-03-04 17:12:00,31.0,21.0,30.09,NNW,342,3.0,4.0,67,0.00,,,0.01,,2013-03-04 22:12:00,
2013-03-04 17:22:00,31.0,21.0,30.09,NNW,327,3.0,4.0,66,0.00,,,0.01,,2013-03-04 22:22:00,
2013-03-04 17:32:00,31.0,22.0,30.09,NE,46,2.0,4.0,68,0.00,,,0.01,,2013-03-04 22:32:00,
2013-03-04 17:42:00,31.0,22.0,30.09,NE,46,2.0,4.0,68,0.00,,,0.01,,2013-03-04 22:42:00,
2013-03-04 17:52:00,30.0,21.0,30.09,NW,325,3.0,5.0,68,0.00,,,0.01,,2013-03-04 22:52:00,
2013-03-04 18:02:00,29.0,20.0,30.09,NNE,23,1.0,4.0,70,0.00,,,0.01,,2013-03-04 23:02:00,
2013-03-04 18:11:00,29.0,20.0,30.09,NNE,23,1.0,4.0,70,0.00,,,0.01,,2013-03-04 23:11:00,
2013-03-04 18:22:00,29.0,21.0,30.09,NE,49,0.0,4.0,71,0.00,,,0.01,,2013-03-04 23:22:00,
2013-03-04 18:32:00,28.0,21.0,30.09,NE,51,0.0,3.0,74,0.00,,,0.01,,2013-03-04 23:32:00,
2013-03-04 18:42:00,28.0,21.0,30.09,NE,51,0.0,3.0,74,0.00,,,0.01,,2013-03-04 23:42:00,
2013-03-04 18:52:00,28.0,21.0,30.09,NNE,22,0.0,3.0,75,0.00,,,0.01,,2013-03-04 23:52:00,
2013-03-04 19:02:00,27.0,21.0,30.09,ENE,71,0.0,2.0,77,0.00,,,0.01,,2013-03-05 00:02:00,
2013-03-04 19:12:00,27.0,21.0,30.09,ENE,71,0.0,2.0,77,0.00,,,0.01,,2013-03-05 00:12:00,
2013-03-04 19:22:00,27.0,21.0,30.09,ENE,71,0.0,2.0,77,0.00,,,0.01,,2013-03-05 00:22:00,
2013-03-04 19:32:00,26.0,20.0,30.10,NNE,16,0.0,1.0,77,0.00,,,0.01,,2013-03-05 00:32:00,
2013-03-04 19:42:00,26.0,20.0,30.10,NNE,16,0.0,1.0,77,0.00,,,0.01,,2013-03-05 00:42:00,
2013-03-04 19:52:00,26.0,20.0,30.10,ENE,63,0.0,2.0,79,0.00,,,0.01,,2013-03-05 00:52:00,
2013-03-04 20:02:00,26.0,20.0,30.09,ENE,69,2.0,2.0,79,0.00,,,0.01,,2013-03-05 01:02:00,
2013-03-04 20:12:00,26.0,20.0,30.09,ENE,69,2.0,2.0,79,0.00,,,0.01,,2013-03-05 01:12:00,
2013-03-04 20:22:00,26.0,20.0,30.09,ENE,71,0.0,2.0,79,0.00,,,0.01,,2013-03-05 01:22:00,
2013-03-04 20:33:00,25.0,20.0,30.09,ENE,73,0.0,0.0,80,0.00,,,0.01,,2013-03-05 01:33:00,
2013-03-04 20:42:00,25.0,20.0,30.09,ENE,73,0.0,0.0,80,0.00,,,0.01,,2013-03-05 01:42:00,
2013-03-04 20:52:00,25.0,20.0,30.09,ENE,71,0.0,0.0,80,0.00,,,0.01,,2013-03-05 01:52:00,
2013-03-04 21:02:00,25.0,20.0,30.09,ENE,71,0.0,0.0,81,0.00,,,0.01,,2013-03-05 02:02:00,
2013-03-04 21:11:00,25.0,20.0,30.09,ENE,71,0.0,0.0,81,0.00,,,0.01,,2013-03-05 02:11:00,
2013-03-04 21:22:00,25.0,20.0,30.09,ENE,71,0.0,0.0,81,0.00,,,0.01,,2013-03-05 02:22:00,
2013-03-04 21:32:00,24.0,19.0,30.09,ENE,71,0.0,0.0,82,0.00,,,0.01,,2013-03-05 02:32:00,
2013-03-04 21:42:00,24.0,19.0,30.09,ENE,71,0.0,0.0,82,0.00,,,0.01,,2013-03-05 02:42:00,
2013-03-04 21:52:00,24.0,20.0,30.09,ENE,71,0.0,0.0,84,0.00,,,0.01,,2013-03-05 02:52:00,
2013-03-04 22:02:00,24.0,20.0,30.09,SSE,148,0.0,0.0,83,0.00,,,0.01,,2013-03-05 03:02:00,
2013-03-04 22:12:00,24.0,20.0,30.09,SSE,148,0.0,0.0,83,0.00,,,0.01,,2013-03-05 03:12:00,
2013-03-04 22:22:00,24.0,20.0,30.09,SSE,148,0.0,0.0,83,0.00,,,0.01,,2013-03-05 03:22:00,
2013-03-04 22:32:00,24.0,20.0,30.09,SSE,148,1.0,1.0,83,0.00,,,0.01,,2013-03-05 03:32:00,
2013-03-04 22:42:00,24.0,20.0,30.09,SSE,148,1.0,1.0,83,0.00,,,0.01,,2013-03-05 03:42:00,
2013-03-04 22:52:00,24.0,19.0,30.09,SE,134,0.0,1.0,82,0.00,,,0.01,,2013-03-05 03:52:00,
2013-03-04 23:02:00,24.0,19.0,30.09,SE,135,0.0,0.0,81,0.00,,,0.01,,2013-03-05 04:02:00,
2013-03-04 23:12:00,24.0,19.0,30.09,SE,135,0.0,0.0,81,0.00,,,0.01,,2013-03-05 04:12:00,
2013-03-04 23:22:00,24.0,19.0,30.09,SE,135,0.0,0.0,81,0.00,,,0.01,,2013-03-05 04:22:00,
2013-03-04 23:32:00,24.0,19.0,30.09,SE,134,0.0,0.0,81,0.00,,,0.01,,2013-03-05 04:32:00,
2013-03-04 23:42:00,24.0,19.0,30.09,SE,134,0.0,0.0,81,0.00,,,0.01,,2013-03-05 04:42:00,
2013-03-04 23:52:00,23.0,18.0,30.09,SE,135,0.0,0.0,82,0.00,,,0.01,,2013-03-05 04:52:00,